Date,TemperatureHighF,TemperatureAvgF,TemperatureLowF,DewpointHighF,DewpointAvgF,DewpointLowF,HumidityHigh,HumidityAvg,HumidityLow,PressureMaxIn,PressureMinIn,WindSpeedMaxMPH,WindSpeedAvgMPH,GustSpeedMaxMPH,PrecipitationSumIn
2013-5-1,70.6,67.5,64.3,63.9,61.0,56.4,88,80,71,30.04,29.92,0,0,0,0.00
2013-5-2,70.8,67.0,64.2,63.8,60.1,56.3,82,78,75,30.03,29.95,0,0,0,0.00
2013-5-3,73.2,66.6,62.7,63.0,59.7,57.1,91,79,63,29.98,29.80,0,0,0,0.03
2013-5-4,62.9,52.2,47.0,60.5,47.8,43.3,98,86,60,29.91,29.80,0,0,0,1.41
2013-5-5,66.8,53.0,42.9,55.0,45.8,41.3,98,78,54,29.89,29.79,0,0,0,0.00
2013-5-6,65.0,59.0,47.4,55.8,52.0,45.8,94,78,63,29.91,29.83,0,0,0,0.03
2013-5-7,71.8,62.2,55.1,56.7,53.2,48.2,97,75,47,29.99,29.86,0,0,0,0.00
2013-5-8,79.6,65.1,52.0,61.2,55.5,49.2,97,73,48,30.07,29.97,0,0,0,0.00
2013-5-9,83.4,72.6,57.2,65.2,59.3,54.0,96,66,38,30.10,29.99,0,0,0,0.00
2013-5-10,75.3,69.8,64.2,65.9,62.4,59.7,91,78,63,30.07,29.89,0,0,0,0.00
2013-5-11,76.5,70.6,65.3,66.5,64.1,62.1,93,80,63,29.96,29.87,0,0,0,0.02
2013-5-12,75.6,65.3,56.3,62.8,53.5,42.9,96,69,37,30.08,29.94,0,0,0,0.00
2013-5-13,74.2,62.0,45.4,48.6,42.8,34.7,86,54,26,30.24,30.08,0,0,0,0.00
2013-5-14,80.7,67.1,51.0,57.5,52.3,46.6,93,62,37,30.23,30.08,0,0,0,0.00
2013-5-15,85.1,72.5,61.0,63.2,58.8,55.5,87,64,38,30.17,29.98,0,0,0,0.02
2013-5-16,84.3,73.7,65.8,66.0,60.5,54.2,81,64,42,30.05,29.92,0,0,0,0.00
2013-5-17,84.7,75.2,66.8,68.1,65.3,62.9,92,72,54,30.04,29.92,0,0,0,0.00
2013-5-18,79.9,74.2,69.8,72.3,69.1,66.5,93,84,74,30.05,29.95,4,0,8,0.01
2013-5-19,83.8,75.7,67.1,72.8,68.9,64.0,95,80,62,30.03,29.93,0,0,0,0.04
2013-5-20,87.4,74.9,65.0,70.9,66.7,62.6,96,77,52,30.04,29.92,0,0,0,0.00
2013-5-21,90.7,78.6,68.4,70.3,67.3,64.4,95,70,46,29.98,29.81,0,0,0,0.00
2013-5-22,87.6,77.6,69.8,69.8,67.1,63.9,91,71,50,29.93,29.81,0,0,0,0.00
2013-5-23,87.6,75.2,67.4,69.7,64.3,59.6,95,72,42,29.97,29.88,0,0,0,0.00
2013-5-24,84.5,74.5,62.1,59.3,54.3,47.2,85,52,33,30.16,30.05,0,0,0,0.00
2013-5-25,84.0,69.0,54.2,57.9,51.2,45.5,86,56,28,30.25,30.13,0,0,0,0.00
2013-5-26,89.0,72.3,58.4,61.7,55.5,46.5,92,60,25,30.20,30.08,0,0,0,0.00
2013-5-27,88.8,75.2,63.4,66.1,60.0,55.1,92,62,35,30.17,30.01,0,0,0,0.01
2013-5-28,88.2,77.4,66.1,68.2,61.6,56.0,83,59,46,30.11,29.99,0,0,0,0.00
2013-5-29,90.3,77.9,67.3,72.0,65.2,57.9,86,66,50,30.10,29.98,0,0,0,0.00
2013-5-30,87.8,78.6,72.7,70.4,66.9,64.1,83,68,50,30.12,29.97,0,0,0,0.00
2013-5-31,88.2,79.1,72.1,70.6,67.4,65.3,85,68,50,30.08,29.96,1,0,8,0.00